createdAt,value
2023-04-22T00:00:03.199Z,72.2
2023-04-22T00:15:02.616Z,75.5
2023-04-22T00:30:03.204Z,77.9
2023-04-22T00:45:02.518Z,78.5
2023-04-22T01:00:03.206Z,79.5
2023-04-22T01:15:04.771Z,84.3
2023-04-22T01:30:02.873Z,87.2
2023-04-22T01:45:02.337Z,88.2
2023-04-22T02:00:02.738Z,90.4
2023-04-22T02:15:03.232Z,92.1
2023-04-22T02:30:02.644Z,92.8
2023-04-22T02:45:03.254Z,93.4
2023-04-22T03:00:02.442Z,93.9
2023-04-22T03:15:02.913Z,94.4
2023-04-22T03:30:02.338Z,94.9
2023-04-22T03:45:02.806Z,95.4
2023-04-22T04:00:03.241Z,95.7
2023-04-22T04:15:02.642Z,96.0
2023-04-22T04:30:02.260Z,96.2
2023-04-22T04:45:02.548Z,96.4
2023-04-22T05:00:02.994Z,96.6
2023-04-22T05:15:02.430Z,96.7
2023-04-22T05:30:02.917Z,96.8
2023-04-22T05:45:02.374Z,96.8
2023-04-22T06:00:02.778Z,96.8
2023-04-22T06:15:03.268Z,96.9
2023-04-22T06:30:02.608Z,96.8
2023-04-22T06:45:03.282Z,96.6
2023-04-22T07:00:02.530Z,96.2
2023-04-22T07:15:02.977Z,95.7
2023-04-22T07:30:02.411Z,95.2
2023-04-22T07:45:02.841Z,94.4
2023-04-22T08:00:02.282Z,93.1
2023-04-22T08:15:02.713Z,90.2
2023-04-22T08:30:03.302Z,86.8
2023-04-22T08:45:02.620Z,71.5
2023-04-22T09:00:03.020Z,56.1
2023-04-22T09:15:02.454Z,50.2
2023-04-22T09:30:02.878Z,47.3
2023-04-22T09:45:02.526Z,42.2
2023-04-22T10:00:02.769Z,41.4
2023-04-22T10:15:03.564Z,43.8
2023-04-22T10:30:02.639Z,42.1
2023-04-22T10:45:03.322Z,42.0
2023-04-22T11:00:02.533Z,42.2
2023-04-22T11:15:02.959Z,40.5
2023-04-22T11:30:02.398Z,40.7
2023-04-22T11:45:02.838Z,40.8
2023-04-22T12:00:02.323Z,37.0
2023-04-22T12:15:02.714Z,38.0
2023-04-22T12:30:02.346Z,36.1
2023-04-22T12:45:02.601Z,36.5
2023-04-22T13:00:03.007Z,34.1
2023-04-22T13:15:02.463Z,39.7
2023-04-22T13:30:02.899Z,35.0
2023-04-22T13:45:02.369Z,37.7
2023-04-22T14:00:02.746Z,40.6
2023-04-22T14:15:03.332Z,41.2
2023-04-22T14:30:02.628Z,38.4
2023-04-22T14:45:03.064Z,38.3
2023-04-22T15:00:02.500Z,38.1
2023-04-22T15:15:02.955Z,40.9
2023-04-22T15:30:02.392Z,43.3
2023-04-22T15:45:04.056Z,44.2
2023-04-22T16:00:11.150Z,46.5
2023-04-22T16:15:02.695Z,48.0
2023-04-22T16:30:03.417Z,52.0
2023-04-22T16:45:02.595Z,55.6
2023-04-22T17:00:03.068Z,60.5
2023-04-22T17:15:02.470Z,66.5
2023-04-22T17:30:02.929Z,69.7
2023-04-22T17:45:02.494Z,71.1
2023-04-22T18:00:02.790Z,73.0
2023-04-22T18:15:03.388Z,75.8
2023-04-22T18:30:02.688Z,76.9
2023-04-22T18:45:04.599Z,80.3
2023-04-22T19:00:02.562Z,82.5
2023-04-22T19:15:02.977Z,83.7
2023-04-22T19:30:02.402Z,86.0
2023-04-22T19:45:02.873Z,89.2
2023-04-22T20:00:02.415Z,91.6
2023-04-22T20:15:02.728Z,93.4
2023-04-22T20:30:03.427Z,94.4
2023-04-22T20:45:02.624Z,95.1
2023-04-22T21:00:03.046Z,95.8
2023-04-22T21:15:02.506Z,96.0
2023-04-22T21:30:02.959Z,96.6
2023-04-22T21:45:02.475Z,96.9
2023-04-22T22:00:02.786Z,96.9
2023-04-22T22:15:02.429Z,96.9
2023-04-22T22:30:02.655Z,96.8
2023-04-22T22:45:03.110Z,96.8
2023-04-22T23:00:02.544Z,96.6
2023-04-22T23:15:02.991Z,96.1
2023-04-22T23:30:02.460Z,95.9
2023-04-22T23:45:02.866Z,95.8
